Record high temperature 29.2°C Record low temperature 7.4°C Record high gust 31.1 mph Record high average 19.8 mph Record daily rain 12.6 mm Record low windchill 5.1°C Record high barometer 1038.3 hPa Record low barometer 997.7 hPa
Daily high pressure 1012.3 hPa Daily low pressure 1011.1 hPa Daily low windchill 13.1°C Daily high heat index 15.1°C Daily high gust speed 12.0 mph WSW Daily high average speed 8.7 mph SW
Seaford Weather Data
LAST READING AT TIME: 6:30 AM DATE: 02 July 2020, time of next update: 7:00 am
Current WeatherNight time/Dry/Scattered clouds Current Temperature 14.2°C (57.6°F), Apparent temp 13.2°C
Maximum Temperature (since midnight)15.1°C at: 12:08 AM Minimum Temperature (since midnight)13.1°C at: 5:08 AM
Average windspeed (ten minute)5.1 mph Wind Direction (ten minute)SW (236°)
Windchill Temperature 14.2°C Maximum Gust (last hour)12.0 mph at: 6:17 AM
Maximum Gust (since midnight)12.0 mph at: 1:14 AM Maximum 1 minute average (since midnight)8.7 mph at: 6:11 AM
Rainfall (last hour)0.0 mm Rainfall (since midnight)0.0 mm (0.00 in.)---
Rainfall This month 1.2 mm (0.05 in.) Rainfall To date this year 418.2 mm (16.46 in.)
Maximum rain per minute (last hour)0.0 mm/min Maximum rain per hour (last 6 hours)0.0 mm/hour
Yesterdays rainfall 1.2 mm DewPoint 12.2°C (Wet Bulb :13.1°C )
Humidity 88 %, Humidex 16.6°C Barometer corrected to msl1012.3 hPa
Pressure change +0.3 hPa (last hour) Trend (last hour)STEADY
Pressure change (last 12 hours)+2.0 hPa Pressure change (last 6 hours)+1.1 hPa
Current 00:00 hours of sunshine today, current sky: Night time/Dry/Scattered clouds
Sunshine hours for the year: 273:29 hrs Sunshine hours for the month: 06:03 hrs
Current evapotranspiration rate 0.6 mm per day. Yesterday's reading 3.4



Weather report/warning/Metars

Shoreham Airport, United Kingdom (EGKA) 50-50N 000-17W 0M
Jul 01, 2020 - 12:50 PM EDT / 2020.07.01 1650 UTC
Wind: from the SW (230 degrees) at 23 MPH (20 KT):0
Visibility: greater than 7 mile(s):0
Sky conditions: partly cloudy
Temperature: 64 F (18 C)
Dew Point: 57 F (14 C)
Relative Humidity: 77%
Pressure (altimeter): 29.74 in. Hg (1007 hPa)
ob: EGKA 011650Z 23020KT 9999 FEW009 SCT014 18/14 Q1007
cycle: 17
Yeovilton, United Kingdom (EGDY) 51-00N 002-38W 0M
Jul 02, 2020 - 12:50 AM EDT / 2020.07.02 0450 UTC
Wind: from the SW (220 degrees) at 9 MPH (8 KT):0
Visibility: greater than 7 mile(s):0
Sky conditions: mostly cloudy
Temperature: 55 F (13 C)
Dew Point: 51 F (11 C)
Relative Humidity: 87%
Pressure (altimeter): 29.80 in. Hg (1009 hPa)
ob: EGDY 020450Z AUTO 22008KT 9999 FEW017/// BKN050/// 13/11 Q1009
cycle: 5
Luton Airport , United Kingdom (EGGW) 51-52N 000-22W
Jul 02, 2020 - 12:50 AM EDT / 2020.07.02 0450 UTC
Wind: from the SSW (210 degrees) at 7 MPH (6 KT):0
Visibility: greater than 7 mile(s):0
Sky conditions: partly cloudy
Temperature: 51 F (11 C)
Dew Point: 48 F (9 C)
Relative Humidity: 87%
Pressure (altimeter): 29.77 in. Hg (1008 hPa)
ob: EGGW 020450Z AUTO 21006KT 9999 SCT039 11/09 Q1008
cycle: 5
Bournemouth Airport, United Kingdom (EGHH) 50-47N 001-50W 0M
Jul 02, 2020 - 12:50 AM EDT / 2020.07.02 0450 UTC
Wind: from the WSW (250 degrees) at 8 MPH (7 KT):0
Visibility: greater than 7 mile(s):0
Sky conditions: mostly clear
Temperature: 55 F (13 C)
Dew Point: 53 F (12 C)
Relative Humidity: 93%
Pressure (altimeter): 29.80 in. Hg (1009 hPa)
ob: EGHH 020450Z 25007KT 9999 FEW022 13/12 Q1009
cycle: 5
Guernsey Airport, United Kingdom (EGJB) 49-26N 002-36W 0M
Jul 02, 2020 - 12:50 AM EDT / 2020.07.02 0450 UTC
Wind: from the W (260 degrees) at 10 MPH (9 KT):0
Visibility: greater than 7 mile(s):0
Sky conditions: mostly clear
Weather: showers in the vicinity
Temperature: 55 F (13 C)
Dew Point: 53 F (12 C)
Relative Humidity: 93%
Pressure (altimeter): 29.88 in. Hg (1012 hPa)
ob: EGJB 020450Z 26009KT 9999 VCSH FEW006 13/12 Q1012
cycle: 5
Jersey Airport, United Kingdom (EGJJ) 49-13N 002-12W 0M
Jul 02, 2020 - 12:50 AM EDT / 2020.07.02 0450 UTC
Wind: from the W (260 degrees) at 15 MPH (13 KT):0
Visibility: greater than 7 mile(s):0
Sky conditions: partly cloudy
Weather: showers in the vicinity
Temperature: 57 F (14 C)
Dew Point: 53 F (12 C)
Relative Humidity: 87%
Pressure (altimeter): 29.91 in. Hg (1013 hPa)
ob: EGJJ 020450Z 26013KT 9999 VCSH FEW011 SCT027 14/12 Q1013
cycle: 5
London / Gatwick Airport, United Kingdom (EGKK) 51-09N 000-11W 0M
Jul 02, 2020 - 12:50 AM EDT / 2020.07.02 0450 UTC
Wind: from the SW (220 degrees) at 5 MPH (4 KT):0
Visibility: greater than 7 mile(s):0
Temperature: 53 F (12 C)
Dew Point: 51 F (11 C)
Relative Humidity: 93%
Pressure (altimeter): 29.80 in. Hg (1009 hPa)
ob: EGKK 020450Z 22004KT CAVOK 12/11 Q1009
cycle: 5
London / Heathrow Airport, United Kingdom (EGLL) 51-29N 000-27W 0M
Jul 02, 2020 - 12:50 AM EDT / 2020.07.02 0450 UTC
Wind: from the WSW (240 degrees) at 8 MPH (7 KT):0
Visibility: greater than 7 mile(s):0
Sky conditions: mostly cloudy
Temperature: 53 F (12 C)
Dew Point: 50 F (10 C)
Relative Humidity: 87%
Pressure (altimeter): 29.80 in. Hg (1009 hPa)
ob: EGLL 020450Z AUTO 24007KT 9999 FEW043 BKN049 12/10 Q1009 NOSIG
cycle: 5
Southend-On-Sea , United Kingdom (EGMC) 51-34N 000-42E
Jul 02, 2020 - 12:50 AM EDT / 2020.07.02 0450 UTC
Wind: from the SW (230 degrees) at 10 MPH (9 KT):0
Visibility: greater than 7 mile(s):0
Temperature: 55 F (13 C)
Dew Point: 51 F (11 C)
Relative Humidity: 87%
Pressure (altimeter): 29.80 in. Hg (1009 hPa)
ob: EGMC 020450Z 23009KT CAVOK 13/11 Q1009
cycle: 5
Lydd Airport , United Kingdom (EGMD) 50-57N 000-56E
Jul 02, 2020 - 12:50 AM EDT / 2020.07.02 0450 UTC
Wind: from the W (260 degrees) at 8 MPH (7 KT):0
Visibility: greater than 7 mile(s):0
Temperature: 59 F (15 C)
Dew Point: 57 F (14 C)
Relative Humidity: 93%
Pressure (altimeter): 29.83 in. Hg (1010 hPa)
ob: EGMD 020450Z AUTO 26007KT 9999 NCD 15/14 Q1010
cycle: 5
Glasgow Airport, United Kingdom (EGPF) 55-52N 004-26W 0M
Jul 02, 2020 - 12:50 AM EDT / 2020.07.02 0450 UTC
Wind: from the E (080 degrees) at 2 MPH (2 KT):0
Visibility: greater than 7 mile(s):0
Sky conditions: overcast
Temperature: 51 F (11 C)
Dew Point: 46 F (8 C)
Relative Humidity: 81%
Pressure (altimeter): 29.80 in. Hg (1009 hPa)
ob: EGPF 020450Z AUTO 08002KT 9999 OVC047 11/08 Q1009
cycle: 5
Stansted Airport, United Kingdom (EGSS) 51-53N 000-14E 0M
Jul 02, 2020 - 12:50 AM EDT / 2020.07.02 0450 UTC
Wind: from the SW (230 degrees) at 8 MPH (7 KT):0
Visibility: greater than 7 mile(s):0
Sky conditions: mostly clear
Temperature: 51 F (11 C)
Dew Point: 48 F (9 C)
Relative Humidity: 87%
Pressure (altimeter): 29.80 in. Hg (1009 hPa)
ob: EGSS 020450Z AUTO 23007KT 9999 FEW038 11/09 Q1009
cycle: 5
Brize Norton, United Kingdom (EGVN) 51-45N 001-35W 0M
Jul 02, 2020 - 12:50 AM EDT / 2020.07.02 0450 UTC
Wind: from the WSW (240 degrees) at 3 MPH (3 KT):0
Visibility: greater than 7 mile(s):0
Sky conditions: mostly cloudy
Temperature: 53 F (12 C)
Dew Point: 50 F (10 C)
Relative Humidity: 87%
Pressure (altimeter): 29.77 in. Hg (1008 hPa)
ob: EGVN 020450Z 24003KT 9999 SCT011 SCT045 BKN100 12/10 Q1008 TEMPO FEW012 RMK GRN TEMPO BLU
cycle: 5



The data is logged at two minute intervals, but there is data recorded every minute. On the graph, the Blue line represents the average windspeed, the Red line is the maximum gust for that interval, and the Green line is what the wind has dropped off to in the same interval. Fuschia is the Barometer, and the dew point and Blue is humidity.

Use the RELOAD facility on your browser to retrieve the latest data.

Click here for a daily update of the averages/extremes to date for the month

Check *Live* Weather

Created by "Weather Display" software version 10.37S at this start time/date 15:39:44 06/06/2020